EFOU

Oulu Airport

Oulu / Oulunsalo, Finland
METAR EFOU 211520Z AUTO 10009KT 060V120 9999 SCT028/// BKN042/// 04/M02 Q1002
Observed Flight Rules
Apr-21 @ 15:20 UTC (17 minutes ago) Visual Flight Rules
Wind Visibility Clouds
100° at 9 knots 10,000+ meters
  • Scattered at 2,800' AGL
  • Broken at 4,200' AGL
Temperatures Readings
Current 4°C / 39°F
Dewpoint -2°C / 28°F
Humidity 65%
Altimeter 29.59" Hg
Pressure 1002 hPa
Elevation 15
METAR EFOU 211520Z AUTO 10009KT 060V120 9999 SCT028/// BKN042/// 04/M02 Q1002
Observed Flight Rules
Apr-21 @ 15:20 UTC
(17 minutes ago)
VFR
Wind Visibility
100° at 9 knots 10,000+ meters
Clouds
  • Scattered at 2,800' AGL
  • Broken at 4,200' AGL
Temperature Dewpoint
4°C / 39°F -2°C / 28°F
Humidity Altimeter Pressure
65% 29.59" Hg 1002 hPa